Stazioni METAR vicine

 

LIRQ - Firenze/Peretola, Italy
Distance from station: S 24km
Dati ricevuti: 23/07/2018 10:50
Poco nuvoloso
Poco nuvoloso
 Vento Da varies
Vento: varies 6 km/h
Temperatura: 25°C
P.to Rugiada: 18°C
Umidità: 65%
Barometro: 1011 hPa
Clouds: Poco nuvoloso
Visibility: 10 km
Cloud details: Poco nuvoloso 1829 m
2018/07/23 08:50 LIRQ 230850Z VRB03KT 9999 FEW060 25/18 Q1011
LIVC - Cimone Mountain, Italy
Distance from station: O-NO 43km
Dati ricevuti: 23/07/2018 10:55
Nebbia
Nebbia
 Vento Da N-NE
Vento: N-NE 35 km/h
Temperatura: 10°C
Temperatura Vento: 6°C
P.to Rugiada: 8°C
Umidità: 88%
Barometro: 1021 hPa
Meteo: Nebbia
Visibility: 0 km
2018/07/23 08:55 LIVC 230855Z 03019KT 0000 FG VV/// 10/08 Q1021 RMK MON INVIS VAL INVIS VIS MIN 0000
 
LIPE - Bologna/Borgo (a, Italy
Distance from station: N-NE 60km
Dati ricevuti: 23/07/2018 10:50
Poco nuvoloso
Poco nuvoloso
 Vento Da varies
Vento: varies 6 km/h
Temperatura: 25°C
P.to Rugiada: 18°C
Umidità: 65%
Barometro: 1012 hPa
Clouds: Poco nuvoloso
Visibility: 10 km
Cloud details: Poco nuvoloso 914 m
2018/07/23 08:50 LIPE 230850Z VRB03KT 9999 FEW030 25/18 Q1012
LIRP - Pisa (civ/It-Afb, Italy
Distance from station: O-SO 72km
Dati ricevuti: 23/07/2018 10:45
Poco nuvoloso
Poco nuvoloso
 Vento Da varies
Vento: varies 2 km/h
Temperatura: 24°C
P.to Rugiada: 19°C
Umidità: 74%
Barometro: 1011 hPa
Clouds: Poco nuvoloso
Visibility: 10 km
Cloud details: Poco nuvoloso 914 m
2018/07/23 08:45 LIRP 230845Z VRB01KT 9999 FEW030 24/19 Q1011 NOSIG
 
LIPK - Forli (civ/It-Af, Italy
Distance from station: E-NE 78km
Dati ricevuti: 23/07/2018 10:50
Poco nuvoloso
Poco nuvoloso
 Vento Da O-SO
Vento: O-SO 7 km/h
Temperatura: 24°C
P.to Rugiada: 19°C
Umidità: 74%
Barometro: 1011 hPa
Clouds: Poco nuvoloso
Visibility: 10 km
Cloud details: Poco nuvoloso 610 m
Poco nuvoloso 914 m
2018/07/23 08:50 LIPK 230850Z 24004KT 9999 FEW020CB FEW030 24/19 Q1011
LIQW - Sarzana/Luni, Italy
Distance from station: O 94km
Dati ricevuti: 23/07/2018 10:55
Poco nuvoloso
Poco nuvoloso
 Vento Da calma
Vento: Calma
Temperatura: 26°C
P.to Rugiada: 21°C
Umidità: 74%
Barometro: 1011 hPa
Clouds: Poco nuvoloso
Visibility: 10 km
Cloud details: Poco nuvoloso 914 m
2018/07/23 08:55 LIQW 230855Z 00000KT 9999 FEW030 26/21 Q1011
 
LIPC - Cervia (it-Afb), Italy
Distance from station: E-NE 96km
Dati ricevuti: 23/07/2018 10:55
Sereno
Sereno
 Vento Da O
Vento: O 11 km/h
Temperatura: 22°C
P.to Rugiada: 19°C
Umidità: 83%
Barometro: 1011 hPa
Meteo: Sereno
Visibility: greater than 10 km
2018/07/23 08:55 LIPC 230855Z 27006KT CAVOK 22/19 Q1011
LIPF - Ferrara (aut), Italy
Distance from station: N-NE 99km
Dati ricevuti: 23/07/2018 10:55
Sereno
Sereno
 Vento Da E-NE
Vento: E-NE 4 km/h
Temperatura: 28°C
Indice di Calore: 29°C
P.to Rugiada: 18°C
Umidità: 55%
Barometro: 1011 hPa
Meteo: Sereno
Visibility: greater than 10 km
2018/07/23 08:55 LIPF 230855Z 06002KT CAVOK 28/18 Q1011